411  
SHUS65 KGJT 162013  
FWOGJT  
 
DAILY FIRE WEATHER OBSERVATION  
NATIONAL WEATHER SERVICE GRAND JUNCTION CO  
212 PM MDT THU AUG 16 2018  
 
STATE OF THE WEATHER (W) 1  
DRY BULB TEMPERATURE 92 DEGREES FAHRENHEIT  
RELATIVE HUMIDITY (RH) 20 PERCENT  
LIGHTNING ACTIVITY LEVEL  
(LAL - MIDNIGHT TO 2 PM) 1  
WIND DIRECTION 270 DEGREES (C IF CALM)  
WIND SPEED 8 MPH  
MAX TEMP (2 PM - 2 PM) 92 DEGREES FAHRENHEIT  
MIN TEMP (2 PM - 2 PM) 69 DEGREES FAHRENHEIT  
MAX RH (2 PM - 2 PM) 38 PERCENT  
MIN RH (2 PM - 2 PM) 19 PERCENT  
PCPN DURATION 0.0 HOURS  
PCPN AMT (2 PM - 2 PM) 0.00 INCHES  
LAL (2 PM - 2 PM) 1  
 

 
 
METAR KGJT 161953Z 29007KT 10SM CLR 33/07 A3015 RMK AO2 SLP126  
T03330072  
 
CLICK HERE TO GO TO PREVIOUS BULLETINS.

The Nexlab CO Page
The Nexlab UT Page Main Text Page